createdAt,value
2017-09-03T00:00:03.428Z,49.5
2017-09-03T00:01:02.923Z,49.5
2017-09-03T00:02:03.523Z,49.5
2017-09-03T00:03:03.512Z,49.5
2017-09-03T00:04:03.294Z,49.5
2017-09-03T00:05:03.164Z,49.5
2017-09-03T00:06:02.595Z,49.4
2017-09-03T00:07:03.394Z,49.4
2017-09-03T00:08:03.039Z,49.4
2017-09-03T00:09:03.020Z,49.4
2017-09-03T00:10:02.615Z,49.4
2017-09-03T00:11:03.226Z,49.3
2017-09-03T00:12:03.013Z,49.3
2017-09-03T00:13:02.610Z,49.3
2017-09-03T00:14:03.254Z,49.3
2017-09-03T00:15:02.860Z,49.3
2017-09-03T00:16:03.264Z,49.3
2017-09-03T00:17:03.045Z,49.2
2017-09-03T00:18:03.137Z,49.2
2017-09-03T00:19:03.164Z,49.1
2017-09-03T00:20:03.573Z,49.1
2017-09-03T00:21:03.004Z,49.1
2017-09-03T00:22:02.967Z,49.1
2017-09-03T00:23:03.556Z,49
2017-09-03T00:24:03.153Z,49
2017-09-03T00:25:02.745Z,48.9
2017-09-03T00:26:03.339Z,48.9
2017-09-03T00:27:03.170Z,48.9
2017-09-03T00:28:03.397Z,48.9
2017-09-03T00:29:03.185Z,48.9
2017-09-03T00:30:02.823Z,48.8
2017-09-03T00:31:03.251Z,48.8
2017-09-03T00:32:02.665Z,48.8
2017-09-03T00:33:03.129Z,48.8
2017-09-03T00:34:02.333Z,48.8
2017-09-03T00:35:02.550Z,48.7
2017-09-03T00:36:03.375Z,48.7
2017-09-03T00:37:03.167Z,48.8
2017-09-03T00:38:02.563Z,48.8
2017-09-03T00:39:03.197Z,48.7
2017-09-03T00:40:02.935Z,48.7
2017-09-03T00:41:03.715Z,48.7
2017-09-03T00:42:03.500Z,48.6
2017-09-03T00:43:03.304Z,48.6
2017-09-03T00:44:02.901Z,48.6
2017-09-03T00:45:02.674Z,48.6
2017-09-03T00:46:03.070Z,48.6
2017-09-03T00:47:02.872Z,48.5
2017-09-03T00:48:02.475Z,48.5
2017-09-03T00:49:03.086Z,48.5
2017-09-03T00:50:03.147Z,48.5
2017-09-03T00:51:02.754Z,48.5
2017-09-03T00:52:03.364Z,48.5
2017-09-03T00:53:02.984Z,48.5
2017-09-03T00:54:02.808Z,48.5
2017-09-03T00:55:03.076Z,48.4
2017-09-03T00:56:02.663Z,48.4
2017-09-03T00:57:03.449Z,48.4
2017-09-03T00:58:02.876Z,48.4
2017-09-03T00:59:02.672Z,48.4
2017-09-03T01:00:03.750Z,48.4
2017-09-03T01:01:03.577Z,48.4
2017-09-03T01:02:03.554Z,48.3
2017-09-03T01:03:03.797Z,48.3
2017-09-03T01:04:03.620Z,48.3
2017-09-03T01:05:03.231Z,48.3
2017-09-03T01:06:03.867Z,48.2
2017-09-03T01:07:03.303Z,48.3
2017-09-03T01:08:03.276Z,48.3
2017-09-03T01:09:03.250Z,48.3
2017-09-03T01:10:03.283Z,48.3
2017-09-03T01:11:02.930Z,48.3
2017-09-03T01:12:03.919Z,48.2
2017-09-03T01:13:03.720Z,48.3
2017-09-03T01:14:03.554Z,48.3
2017-09-03T01:15:03.370Z,48.3
2017-09-03T01:16:03.988Z,48.3
2017-09-03T01:17:03.844Z,48.3
2017-09-03T01:18:03.826Z,48.3
2017-09-03T01:19:03.239Z,48.2
2017-09-03T01:20:03.860Z,48.2
2017-09-03T01:21:03.863Z,48.2
2017-09-03T01:22:03.677Z,48.2
2017-09-03T01:23:02.925Z,48.2
2017-09-03T01:24:04.237Z,48.2
2017-09-03T01:25:03.896Z,48.2
2017-09-03T01:26:02.947Z,48.2
2017-09-03T01:27:03.942Z,48.2
2017-09-03T01:28:03.920Z,48.2
2017-09-03T01:29:03.337Z,48.2
2017-09-03T01:30:03.145Z,48.2
2017-09-03T01:31:04.184Z,48.2
2017-09-03T01:32:04.238Z,48.2
2017-09-03T01:33:04.048Z,48.2
2017-09-03T01:34:03.508Z,48.2
2017-09-03T01:35:03.347Z,48.1
2017-09-03T01:36:03.129Z,48.2
2017-09-03T01:37:03.729Z,48.1
2017-09-03T01:38:03.341Z,48.1
2017-09-03T01:39:03.135Z,48.1
2017-09-03T01:40:03.562Z,48.1
2017-09-03T01:41:02.968Z,48.1
2017-09-03T01:42:03.572Z,48
2017-09-03T01:43:03.981Z,48
2017-09-03T01:44:03.956Z,48
2017-09-03T01:45:03.095Z,48
2017-09-03T01:46:03.317Z,48
2017-09-03T01:47:03.107Z,47.9
2017-09-03T01:48:03.701Z,47.9
2017-09-03T01:49:03.307Z,47.9
2017-09-03T01:50:03.290Z,47.9
2017-09-03T01:51:03.887Z,47.9
2017-09-03T01:52:03.477Z,47.9
2017-09-03T01:53:02.893Z,47.9
2017-09-03T01:54:03.102Z,47.9
2017-09-03T01:55:03.908Z,47.9
2017-09-03T01:56:03.518Z,47.9
2017-09-03T01:57:03.325Z,47.9
2017-09-03T01:58:04.128Z,47.9
2017-09-03T01:59:03.537Z,47.9
2017-09-03T02:00:04.053Z,47.8
2017-09-03T02:01:03.515Z,47.8
2017-09-03T02:02:03.294Z,47.9
2017-09-03T02:03:03.706Z,47.9
2017-09-03T02:04:03.710Z,47.9
2017-09-03T02:05:03.120Z,47.9
2017-09-03T02:06:03.723Z,47.9
2017-09-03T02:07:03.324Z,47.9
2017-09-03T02:08:02.935Z,47.9
2017-09-03T02:09:03.948Z,47.9
2017-09-03T02:10:02.786Z,47.9
2017-09-03T02:11:03.246Z,47.9
2017-09-03T02:12:03.894Z,47.9
2017-09-03T02:13:03.499Z,47.9
2017-09-03T02:14:03.290Z,47.9
2017-09-03T02:15:03.703Z,47.9
2017-09-03T02:16:03.298Z,47.9
2017-09-03T02:17:04.020Z,47.9
2017-09-03T02:18:03.243Z,47.9
2017-09-03T02:19:03.028Z,47.9
2017-09-03T02:20:03.447Z,47.9
2017-09-03T02:21:03.241Z,47.9
2017-09-03T02:22:03.643Z,47.9
2017-09-03T02:23:02.655Z,47.9
2017-09-03T02:24:03.621Z,47.8
2017-09-03T02:25:02.827Z,47.8
2017-09-03T02:26:03.045Z,47.8
2017-09-03T02:27:03.635Z,47.8
2017-09-03T02:28:03.028Z,47.8
2017-09-03T02:29:03.630Z,47.8
2017-09-03T02:30:03.401Z,47.8
2017-09-03T02:31:03.666Z,47.8
2017-09-03T02:32:03.470Z,47.8
2017-09-03T02:33:03.559Z,47.7
2017-09-03T02:34:03.980Z,47.7
2017-09-03T02:35:03.418Z,47.7
2017-09-03T02:36:02.640Z,47.7
2017-09-03T02:37:03.053Z,47.6
2017-09-03T02:38:03.876Z,47.6
2017-09-03T02:39:03.217Z,47.7
2017-09-03T02:40:03.660Z,47.7
2017-09-03T02:41:03.459Z,47.6
2017-09-03T02:42:03.256Z,47.6
2017-09-03T02:43:03.665Z,47.6
2017-09-03T02:44:03.067Z,47.6
2017-09-03T02:45:03.671Z,47.8
2017-09-03T02:46:03.291Z,47.8
2017-09-03T02:47:02.900Z,47.8
2017-09-03T02:48:03.522Z,47.9
2017-09-03T02:49:04.243Z,47.9
2017-09-03T02:50:03.273Z,47.9
2017-09-03T02:51:04.083Z,47.9
2017-09-03T02:52:03.881Z,47.9
2017-09-03T02:53:03.681Z,48
2017-09-03T02:54:03.463Z,47.9
2017-09-03T02:55:03.256Z,47.9
2017-09-03T02:56:03.281Z,47.9
2017-09-03T02:57:03.884Z,47.9
2017-09-03T02:58:03.295Z,47.9
2017-09-03T02:59:02.877Z,47.8
2017-09-03T03:00:03.111Z,47.9
2017-09-03T03:01:03.597Z,47.9
2017-09-03T03:02:03.204Z,47.9
2017-09-03T03:03:02.821Z,47.9
2017-09-03T03:04:03.425Z,47.8
2017-09-03T03:05:03.684Z,47.8
2017-09-03T03:06:03.407Z,47.8
2017-09-03T03:07:02.637Z,47.8
2017-09-03T03:08:03.271Z,47.9
2017-09-03T03:09:03.252Z,47.9
2017-09-03T03:10:03.850Z,47.9
2017-09-03T03:11:03.454Z,47.9
2017-09-03T03:12:03.050Z,47.9
2017-09-03T03:13:03.668Z,47.9
2017-09-03T03:14:03.471Z,48
2017-09-03T03:15:03.306Z,48
2017-09-03T03:16:03.125Z,47.9
2017-09-03T03:17:02.912Z,47.8
2017-09-03T03:18:03.340Z,47.9
2017-09-03T03:19:02.748Z,47.9
2017-09-03T03:20:03.191Z,47.9
2017-09-03T03:21:03.640Z,47.9
2017-09-03T03:22:03.546Z,48
2017-09-03T03:23:03.582Z,47.9
2017-09-03T03:24:02.622Z,47.9
2017-09-03T03:25:03.251Z,47.9
2017-09-03T03:26:02.664Z,47.9
2017-09-03T03:27:03.470Z,47.9
2017-09-03T03:28:02.684Z,47.9
2017-09-03T03:29:03.671Z,47.9
2017-09-03T03:30:03.308Z,48
2017-09-03T03:31:02.935Z,48
2017-09-03T03:32:03.737Z,47.9
2017-09-03T03:33:03.531Z,47.9
2017-09-03T03:34:02.934Z,47.9
2017-09-03T03:35:03.363Z,47.9
2017-09-03T03:36:02.758Z,47.9
2017-09-03T03:37:03.184Z,47.9
2017-09-03T03:38:02.989Z,47.9
2017-09-03T03:39:03.780Z,47.9
2017-09-03T03:40:03.387Z,47.9
2017-09-03T03:41:02.980Z,47.9
2017-09-03T03:42:03.764Z,47.9
2017-09-03T03:43:03.899Z,47.9
2017-09-03T03:44:03.104Z,47.8
2017-09-03T03:45:03.710Z,47.8
2017-09-03T03:46:02.909Z,47.8
2017-09-03T03:47:03.325Z,47.8
2017-09-03T03:48:03.731Z,47.8
2017-09-03T03:49:03.528Z,47.8
2017-09-03T03:50:02.751Z,47.8
2017-09-03T03:51:03.745Z,47.7
2017-09-03T03:52:03.342Z,47.7
2017-09-03T03:53:02.760Z,47.7
2017-09-03T03:54:03.558Z,47.7
2017-09-03T03:55:02.782Z,47.8
2017-09-03T03:56:03.187Z,47.7
2017-09-03T03:57:03.981Z,47.7
2017-09-03T03:58:03.598Z,47.7
2017-09-03T03:59:03.203Z,47.7
2017-09-03T04:00:03.635Z,47.7
2017-09-03T04:01:02.872Z,47.7
2017-09-03T04:02:02.681Z,47.7
2017-09-03T04:03:03.282Z,47.7
2017-09-03T04:04:02.707Z,47.7
2017-09-03T04:05:03.233Z,47.7
2017-09-03T04:06:03.019Z,47.7
2017-09-03T04:07:02.240Z,47.8
2017-09-03T04:08:02.865Z,47.7
2017-09-03T04:09:02.887Z,47.8
2017-09-03T04:10:02.484Z,47.8
2017-09-03T04:11:02.901Z,47.8
2017-09-03T04:12:02.903Z,47.9
2017-09-03T04:13:02.888Z,48
2017-09-03T04:14:02.307Z,48
2017-09-03T04:15:02.926Z,48
2017-09-03T04:16:02.757Z,48
2017-09-03T04:17:02.791Z,47.9
2017-09-03T04:18:02.202Z,47.9
2017-09-03T04:19:03.165Z,47.9
2017-09-03T04:20:02.816Z,47.9
2017-09-03T04:21:02.458Z,47.9
2017-09-03T04:22:03.087Z,48
2017-09-03T04:23:02.764Z,47.9
2017-09-03T04:24:02.554Z,48
2017-09-03T04:25:02.976Z,48
2017-09-03T04:26:02.786Z,48.1
2017-09-03T04:27:02.881Z,48
2017-09-03T04:28:02.716Z,48
2017-09-03T04:29:03.123Z,48
2017-09-03T04:30:02.938Z,48
2017-09-03T04:31:02.387Z,48.1
2017-09-03T04:32:02.811Z,48.1
2017-09-03T04:33:03.348Z,48.1
2017-09-03T04:34:02.773Z,48
2017-09-03T04:35:03.003Z,48.1
2017-09-03T04:36:02.811Z,48.1
2017-09-03T04:37:02.628Z,48.1
2017-09-03T04:38:03.245Z,48.1
2017-09-03T04:39:03.044Z,48.1
2017-09-03T04:40:01.885Z,48.1
2017-09-03T04:41:02.507Z,48.1
2017-09-03T04:42:03.307Z,48.1
2017-09-03T04:43:03.298Z,48.1
2017-09-03T04:44:03.402Z,48.1
2017-09-03T04:45:02.816Z,48.1
2017-09-03T04:46:03.068Z,48.1
2017-09-03T04:47:02.857Z,48.1
2017-09-03T04:48:02.466Z,48.1
2017-09-03T04:49:03.071Z,48
2017-09-03T04:50:02.665Z,48.1
2017-09-03T04:51:03.086Z,48.2
2017-09-03T04:52:02.693Z,48.2
2017-09-03T04:53:03.116Z,48.2
2017-09-03T04:54:02.534Z,48.2
2017-09-03T04:55:03.154Z,48.2
2017-09-03T04:56:02.776Z,48.2
2017-09-03T04:57:03.019Z,48.2
2017-09-03T04:58:02.622Z,48.2
2017-09-03T04:59:03.157Z,47.6
2017-09-03T05:00:02.589Z,47.2
2017-09-03T05:01:03.155Z,47.4
2017-09-03T05:02:02.754Z,47.5
2017-09-03T05:03:03.164Z,47.6
2017-09-03T05:04:02.777Z,47.5
2017-09-03T05:05:02.593Z,47.6
2017-09-03T05:06:03.495Z,47.8
2017-09-03T05:07:02.727Z,47.8
2017-09-03T05:08:03.142Z,47.9
2017-09-03T05:09:03.132Z,48
2017-09-03T05:10:02.915Z,48
2017-09-03T05:11:03.502Z,48
2017-09-03T05:12:03.505Z,48
2017-09-03T05:13:03.340Z,48.1
2017-09-03T05:14:02.590Z,48
2017-09-03T05:15:03.194Z,48.2
2017-09-03T05:16:03.412Z,48.3
2017-09-03T05:17:02.832Z,48.3
2017-09-03T05:18:02.290Z,48.4
2017-09-03T05:19:03.093Z,48.5
2017-09-03T05:20:02.346Z,48.6
2017-09-03T05:21:02.982Z,48.7
2017-09-03T05:22:02.886Z,48.8
2017-09-03T05:23:02.479Z,48.8
2017-09-03T05:24:03.119Z,48.9
2017-09-03T05:25:02.910Z,48.8
2017-09-03T05:26:02.518Z,48.8
2017-09-03T05:27:03.101Z,48.8
2017-09-03T05:28:02.146Z,48.9
2017-09-03T05:29:02.947Z,48.9
2017-09-03T05:30:03.405Z,49
2017-09-03T05:31:03.011Z,49.1
2017-09-03T05:32:02.811Z,49.1
2017-09-03T05:33:02.795Z,49
2017-09-03T05:34:02.786Z,48.9
2017-09-03T05:35:02.559Z,48.9
2017-09-03T05:36:03.166Z,48.9
2017-09-03T05:37:02.581Z,49
2017-09-03T05:38:03.471Z,49.1
2017-09-03T05:39:02.864Z,49.1
2017-09-03T05:40:03.063Z,49.1
2017-09-03T05:41:03.271Z,49
2017-09-03T05:42:02.668Z,49
2017-09-03T05:43:03.063Z,49
2017-09-03T05:44:02.494Z,49
2017-09-03T05:45:03.313Z,49.1
2017-09-03T05:46:02.917Z,49
2017-09-03T05:47:02.918Z,49
2017-09-03T05:48:02.375Z,49
2017-09-03T05:49:02.982Z,49.3
2017-09-03T05:50:03.037Z,49.3
2017-09-03T05:51:03.658Z,49.3
2017-09-03T05:52:02.326Z,49.3
2017-09-03T05:53:02.772Z,49.3
2017-09-03T05:54:02.700Z,49.4
2017-09-03T05:55:03.296Z,49.5
2017-09-03T05:56:02.906Z,49.5
2017-09-03T05:57:03.340Z,49.6
2017-09-03T05:58:02.596Z,49.7
2017-09-03T05:59:03.427Z,49.7
2017-09-03T06:00:03.300Z,49.8
2017-09-03T06:01:02.673Z,49.9
2017-09-03T06:02:01.920Z,49.9
2017-09-03T06:03:02.244Z,50
2017-09-03T06:04:02.704Z,50.1
2017-09-03T06:05:02.356Z,50.1
2017-09-03T06:06:03.006Z,50
2017-09-03T06:07:02.074Z,50.1
2017-09-03T06:08:02.750Z,50.2
2017-09-03T06:09:02.583Z,50.2
2017-09-03T06:10:02.739Z,50.1
2017-09-03T06:11:03.018Z,50.1
2017-09-03T06:12:02.488Z,50.1
2017-09-03T06:13:02.325Z,50.2
2017-09-03T06:14:03.216Z,50.2
2017-09-03T06:15:03.044Z,50
2017-09-03T06:16:02.902Z,50
2017-09-03T06:17:02.337Z,49.9
2017-09-03T06:18:02.949Z,49.8
2017-09-03T06:19:02.776Z,49.8
2017-09-03T06:20:02.231Z,49.9
2017-09-03T06:21:03.041Z,50
2017-09-03T06:22:02.678Z,50
2017-09-03T06:23:02.735Z,49.9
2017-09-03T06:24:02.198Z,49.9
2017-09-03T06:25:03.039Z,49.9
2017-09-03T06:26:02.593Z,49.8
2017-09-03T06:27:02.052Z,49.9
2017-09-03T06:28:02.494Z,49.8
2017-09-03T06:29:02.946Z,49.9
2017-09-03T06:30:02.579Z,49.8
2017-09-03T06:31:02.690Z,49.9
2017-09-03T06:32:02.498Z,50
2017-09-03T06:33:03.113Z,50.1
2017-09-03T06:34:02.945Z,50
2017-09-03T06:35:02.646Z,50.1
2017-09-03T06:36:02.150Z,50.1
2017-09-03T06:37:02.922Z,50.1
2017-09-03T06:38:02.162Z,50.1
2017-09-03T06:39:02.973Z,50.1
2017-09-03T06:40:02.785Z,50.1
2017-09-03T06:41:02.449Z,50.1
2017-09-03T06:42:02.055Z,50.2
2017-09-03T06:43:02.490Z,50.3
2017-09-03T06:44:02.106Z,50.3
2017-09-03T06:45:02.752Z,50.3
2017-09-03T06:46:02.622Z,50.2
2017-09-03T06:47:03.091Z,50.2
2017-09-03T06:48:02.707Z,50.2
2017-09-03T06:49:02.333Z,50.2
2017-09-03T06:50:02.990Z,50.1
2017-09-03T06:51:02.803Z,50.1
2017-09-03T06:52:02.033Z,50.2
2017-09-03T06:53:03.168Z,50.2
2017-09-03T06:54:02.997Z,50.3
2017-09-03T06:55:02.256Z,50.3
2017-09-03T06:56:02.556Z,50.4
2017-09-03T06:57:02.539Z,50.4
2017-09-03T06:58:02.974Z,50.4
2017-09-03T06:59:16.681Z,50.4
2017-09-03T07:00:02.669Z,50.4
2017-09-03T07:01:03.282Z,50.3
2017-09-03T07:02:02.849Z,50.3
2017-09-03T07:03:03.776Z,50.3
2017-09-03T07:04:03.580Z,50.4
2017-09-03T07:05:03.209Z,50.3
2017-09-03T07:06:02.859Z,50.3
2017-09-03T07:07:03.076Z,50.3
2017-09-03T07:08:03.342Z,50.3
2017-09-03T07:09:03.165Z,50.3
2017-09-03T07:10:02.788Z,50.4
2017-09-03T07:11:02.912Z,50.4
2017-09-03T07:12:03.533Z,50.4
2017-09-03T07:13:03.168Z,50.2
2017-09-03T07:14:04.071Z,52.3
2017-09-03T07:15:03.778Z,52.7
2017-09-03T07:16:03.855Z,52.4
2017-09-03T07:17:03.104Z,51.8
2017-09-03T07:18:03.808Z,52.3
2017-09-03T07:19:18.276Z,52.1
2017-09-03T07:20:03.909Z,52.3
2017-09-03T07:21:03.385Z,53.6
2017-09-03T07:22:03.490Z,53.9
2017-09-03T07:23:03.955Z,54.7
2017-09-03T07:24:03.429Z,54.6
2017-09-03T07:25:03.702Z,53.8
2017-09-03T07:26:03.700Z,53.9
2017-09-03T07:27:03.173Z,53.7
2017-09-03T07:28:03.244Z,52.9
2017-09-03T07:29:03.899Z,52.7
2017-09-03T07:30:03.654Z,53
2017-09-03T07:31:03.122Z,52.5
2017-09-03T07:32:03.590Z,52.6
2017-09-03T07:33:03.043Z,51.3
2017-09-03T07:34:03.299Z,50.6
2017-09-03T07:35:02.962Z,50.5
2017-09-03T07:36:03.051Z,50.4
2017-09-03T07:37:03.335Z,49.9
2017-09-03T07:38:03.573Z,49.9
2017-09-03T07:39:03.856Z,49.7
2017-09-03T07:40:03.482Z,49.5
2017-09-03T07:41:03.973Z,49.4
2017-09-03T07:42:03.609Z,49.4
2017-09-03T07:43:03.071Z,49.3
2017-09-03T07:44:03.131Z,49.1
2017-09-03T07:45:03.417Z,49.2
2017-09-03T07:46:03.700Z,48.6
2017-09-03T07:47:03.838Z,48.4
2017-09-03T07:48:03.118Z,48.4
2017-09-03T07:49:03.757Z,48.5
2017-09-03T07:50:02.855Z,48.2
2017-09-03T07:51:03.340Z,48.4
2017-09-03T07:52:03.810Z,49
2017-09-03T07:53:03.064Z,49.1
2017-09-03T07:54:03.469Z,49.6
2017-09-03T07:55:03.132Z,49.5
2017-09-03T07:56:03.589Z,49.4
2017-09-03T07:57:03.034Z,49.6
2017-09-03T07:58:03.354Z,49.3
2017-09-03T07:59:02.991Z,49.3
2017-09-03T08:00:03.095Z,49.4
2017-09-03T08:01:02.907Z,49.3
2017-09-03T08:02:03.399Z,49.4
2017-09-03T08:03:04.165Z,49.6
2017-09-03T08:04:03.454Z,49
2017-09-03T08:05:02.944Z,48.6
2017-09-03T08:06:03.389Z,48.2
2017-09-03T08:07:03.824Z,48.3
2017-09-03T08:08:03.263Z,48.5
2017-09-03T08:09:03.671Z,48.3
2017-09-03T08:10:03.493Z,48.2
2017-09-03T08:11:02.578Z,48.1
2017-09-03T08:12:03.027Z,48.1
2017-09-03T08:13:03.249Z,48.7
2017-09-03T08:14:03.605Z,48.4
2017-09-03T08:15:03.310Z,48.5
2017-09-03T08:16:02.353Z,48.8
2017-09-03T08:17:03.018Z,48.7
2017-09-03T08:18:03.633Z,48.6
2017-09-03T09:15:06.232Z,47.1
2017-09-03T09:16:02.548Z,46.5
2017-09-03T09:17:03.202Z,46
2017-09-03T09:18:02.675Z,45.4
2017-09-03T09:19:03.134Z,45.3
2017-09-03T09:20:03.601Z,45.4
2017-09-03T09:21:02.969Z,45.5
2017-09-03T09:22:03.504Z,45.2
2017-09-03T09:23:03.263Z,44.8
2017-09-03T09:24:02.736Z,44.6
2017-09-03T09:25:02.780Z,44.3
2017-09-03T09:26:02.850Z,44.3
2017-09-03T09:27:02.927Z,44.7
2017-09-03T09:28:03.187Z,44.6
2017-09-03T09:29:02.647Z,45
2017-09-03T09:30:02.537Z,44.7
2017-09-03T09:31:03.044Z,44.5
2017-09-03T09:32:02.699Z,44.9
2017-09-03T09:33:02.989Z,44.2
2017-09-03T09:34:02.638Z,44.1
2017-09-03T09:35:07.437Z,44
2017-09-03T09:36:03.305Z,44.2
2017-09-03T09:37:03.496Z,44.4
2017-09-03T09:41:00.258Z,32.5
2017-09-03T09:41:03.821Z,33.3
2017-09-03T09:42:03.472Z,41.9
2017-09-03T09:43:03.924Z,45.4
2017-09-03T09:44:03.202Z,46.5
2017-09-03T09:45:03.882Z,46.6
2017-09-03T09:46:02.982Z,46.6
2017-09-03T09:47:03.474Z,46.9
2017-09-03T09:48:03.424Z,46.5
2017-09-03T09:49:03.688Z,46.4
2017-09-03T09:50:03.554Z,46.4
2017-09-03T09:51:03.038Z,45.9
2017-09-03T09:52:03.513Z,45.9
2017-09-03T09:53:04.181Z,46.1
2017-09-03T09:54:03.704Z,45.7
2017-09-03T09:55:04.230Z,45.3
2017-09-03T09:56:03.519Z,45.7
2017-09-03T09:57:04.203Z,46.1
2017-09-03T09:58:03.932Z,45.3
2017-09-03T09:59:03.429Z,44.6
2017-09-03T10:00:03.112Z,45.1
2017-09-03T10:01:02.964Z,44.7
2017-09-03T10:02:03.468Z,44.7
2017-09-03T10:03:02.599Z,45.6
2017-09-03T10:04:03.581Z,45.9
2017-09-03T10:05:02.867Z,46.2
2017-09-03T10:06:02.340Z,45.9
2017-09-03T10:07:02.616Z,45.2
2017-09-03T10:08:02.922Z,45.5
2017-09-03T10:09:02.392Z,45.1
2017-09-03T10:09:26.704Z,45
2017-09-03T10:10:03.066Z,44.6
2017-09-03T10:11:02.294Z,42.9
2017-09-03T10:12:02.516Z,41.7
2017-09-03T10:13:02.729Z,41.2
2017-09-03T10:14:02.830Z,41.1
2017-09-03T10:15:03.350Z,44.6
2017-09-03T10:16:03.340Z,45.2
2017-09-03T10:17:02.975Z,45.6
2017-09-03T10:18:02.603Z,44.3
2017-09-03T10:19:03.039Z,45.2
2017-09-03T10:20:03.093Z,45.2
2017-09-03T10:21:02.832Z,45
2017-09-03T10:22:02.660Z,45
2017-09-03T10:23:02.881Z,45.3
2017-09-03T10:24:02.710Z,44.8
2017-09-03T10:25:02.767Z,45.1
2017-09-03T10:26:03.035Z,45.1
2017-09-03T10:27:02.097Z,45.2
2017-09-03T10:28:02.711Z,44.5
2017-09-03T10:29:02.928Z,44.2
2017-09-03T10:30:02.535Z,44.2
2017-09-03T10:31:03.001Z,44.8
2017-09-03T10:32:02.422Z,43.9
2017-09-03T10:33:02.822Z,43.5
2017-09-03T10:34:03.439Z,43.3
2017-09-03T10:35:03.048Z,43.9
2017-09-03T10:36:02.863Z,43.4
2017-09-03T10:37:02.774Z,43.6
2017-09-03T10:38:03.192Z,43.3
2017-09-03T10:39:03.219Z,43.3
2017-09-03T10:40:02.461Z,43
2017-09-03T10:41:02.876Z,43.2
2017-09-03T10:42:03.287Z,44.1
2017-09-03T10:43:02.703Z,44.7
2017-09-03T10:44:03.129Z,43.8
2017-09-03T10:45:02.728Z,43.9
2017-09-03T10:46:03.156Z,44.1
2017-09-03T10:47:02.757Z,44.5
2017-09-03T10:48:02.661Z,44.3
2017-09-03T10:49:03.331Z,44.8
2017-09-03T10:50:02.936Z,45.2
2017-09-03T10:52:02.046Z,45.2
2017-09-03T10:53:02.678Z,44.9
2017-09-03T10:54:03.275Z,44.2
2017-09-03T10:55:02.503Z,44.8
2017-09-03T10:56:02.590Z,44.3
2017-09-03T10:57:03.220Z,45.4
2017-09-03T10:58:02.821Z,45.8
2017-09-03T10:59:02.920Z,45
2017-09-03T11:00:03.056Z,44.4
2017-09-03T11:01:02.540Z,43.6
2017-09-03T11:02:03.010Z,43
2017-09-03T11:03:03.451Z,43.1
2017-09-03T11:04:02.695Z,42.8
2017-09-03T11:05:03.114Z,42.8
2017-09-03T11:06:02.347Z,42.8
2017-09-03T11:07:02.946Z,43.3
2017-09-03T11:08:02.540Z,43.5
2017-09-03T11:09:03.251Z,43.6
2017-09-03T11:10:02.666Z,42.4
2017-09-03T11:11:03.278Z,42.7
2017-09-03T11:12:02.108Z,42.9
2017-09-03T11:13:02.522Z,42.9
2017-09-03T11:14:02.922Z,43
2017-09-03T11:15:02.160Z,43.1
2017-09-03T11:16:02.466Z,42.6
2017-09-03T11:17:02.291Z,42.5
2017-09-03T11:18:03.132Z,42.7
2017-09-03T11:19:02.743Z,42
2017-09-03T11:20:02.172Z,41.5
2017-09-03T11:21:02.776Z,42
2017-09-03T11:22:02.891Z,41.9
2017-09-03T11:23:02.564Z,41.8
2017-09-03T11:24:02.904Z,41.3
2017-09-03T11:25:02.759Z,41.3
2017-09-03T11:26:02.406Z,42.3
2017-09-03T11:27:02.427Z,41.4
2017-09-03T11:28:02.917Z,41.8
2017-09-03T11:29:03.169Z,42
2017-09-03T11:30:02.970Z,41.3
2017-09-03T11:31:02.910Z,42.1
2017-09-03T11:32:03.131Z,41.4
2017-09-03T11:33:02.558Z,41.4
2017-09-03T11:34:02.787Z,41.7
2017-09-03T11:35:02.389Z,41.7
2017-09-03T11:36:02.790Z,41.7
2017-09-03T11:37:02.815Z,41.8
2017-09-03T11:38:02.630Z,41.5
2017-09-03T11:39:02.853Z,41.8
2017-09-03T11:40:02.672Z,41.6
2017-09-03T11:41:03.560Z,42.3
2017-09-03T11:42:02.984Z,41.5
2017-09-03T11:43:02.394Z,41.9
2017-09-03T11:44:02.996Z,42.1
2017-09-03T11:45:02.798Z,41.3
2017-09-03T11:46:03.030Z,41.8
2017-09-03T11:47:02.637Z,42.2
2017-09-03T11:48:03.022Z,42.6
2017-09-03T11:49:02.510Z,42.9
2017-09-03T11:50:03.118Z,43.3
2017-09-03T11:51:02.525Z,42.9
2017-09-03T11:52:03.217Z,42.7
2017-09-03T11:53:02.803Z,42.5
2017-09-03T11:54:03.386Z,42.6
2017-09-03T11:55:02.410Z,42.4
2017-09-03T11:56:03.013Z,42.2
2017-09-03T11:57:02.808Z,42.3
2017-09-03T11:58:03.026Z,42.2
2017-09-03T11:59:03.045Z,41.9
2017-09-03T12:00:03.275Z,41.9
2017-09-03T12:01:03.054Z,41.9
2017-09-03T12:02:03.276Z,42.4
2017-09-03T12:03:02.928Z,42.1
2017-09-03T12:04:03.547Z,42.3
2017-09-03T12:05:02.772Z,42.1
2017-09-03T12:06:03.017Z,41.2
2017-09-03T12:07:03.448Z,41.2
2017-09-03T12:08:03.586Z,42.1
2017-09-03T12:09:03.197Z,40.9
2017-09-03T12:10:02.801Z,41.4
2017-09-03T12:11:03.091Z,41.2
2017-09-03T12:12:03.362Z,41.6
2017-09-03T12:13:02.607Z,40.8
2017-09-03T12:14:03.044Z,40.5
2017-09-03T12:15:02.088Z,40.7
2017-09-03T12:16:02.694Z,41
2017-09-03T12:17:02.941Z,40.5
2017-09-03T12:18:02.584Z,40.2
2017-09-03T12:19:03.160Z,39.4
2017-09-03T12:20:02.759Z,40.3
2017-09-03T12:21:03.176Z,40.5
2017-09-03T12:22:02.394Z,39.6
2017-09-03T12:23:02.986Z,39.8
2017-09-03T12:24:03.591Z,38.9
2017-09-03T12:25:02.998Z,38.8
2017-09-03T12:26:02.416Z,39.2
2017-09-03T12:27:02.863Z,39.6
2017-09-03T12:28:03.468Z,40.3
2017-09-03T12:29:02.527Z,40
2017-09-03T12:30:03.138Z,39
2017-09-03T12:31:02.935Z,39.5
2017-09-03T12:32:02.331Z,38.3
2017-09-03T12:33:03.082Z,36.6
2017-09-03T12:34:03.091Z,35.8
2017-09-03T12:35:02.786Z,35.3
2017-09-03T12:36:02.976Z,35
2017-09-03T12:37:02.846Z,35
2017-09-03T12:38:03.060Z,34.8
2017-09-03T12:39:03.260Z,34.8
2017-09-03T12:40:03.460Z,34.6
2017-09-03T12:41:03.202Z,34.9
2017-09-03T12:42:02.946Z,34.8
2017-09-03T12:43:03.319Z,34.6
2017-09-03T12:44:02.733Z,34.7
2017-09-03T12:45:02.803Z,34.6
2017-09-03T12:46:03.165Z,34.6
2017-09-03T12:47:02.724Z,34.8
2017-09-03T12:48:02.921Z,34.9
2017-09-03T12:49:03.126Z,34.9
2017-09-03T12:50:03.307Z,34.9
2017-09-03T12:51:02.752Z,35
2017-09-03T12:52:02.986Z,35.3
2017-09-03T12:53:03.207Z,35.3
2017-09-03T12:54:02.982Z,35.1
2017-09-03T12:55:03.612Z,34.6
2017-09-03T12:56:03.006Z,34.9
2017-09-03T12:57:02.888Z,34.7
2017-09-03T12:58:03.316Z,34.7
2017-09-03T12:59:02.321Z,34.4
2017-09-03T13:00:02.783Z,34.1
2017-09-03T13:01:03.245Z,34.4
2017-09-03T13:02:03.852Z,34.6
2017-09-03T13:03:03.430Z,34.8
2017-09-03T13:04:03.431Z,34.6
2017-09-03T13:05:02.991Z,34.5
2017-09-03T13:06:03.560Z,34.7
2017-09-03T13:07:03.847Z,35
2017-09-03T13:08:03.002Z,35.2
2017-09-03T13:09:03.227Z,35.5
2017-09-03T13:10:03.418Z,35.5
2017-09-03T13:11:03.432Z,35.6
2017-09-03T13:12:02.814Z,35.4
2017-09-03T13:13:03.219Z,35.4
2017-09-03T13:14:02.592Z,35.6
2017-09-03T13:15:03.008Z,35.6
2017-09-03T13:16:02.561Z,35.7
2017-09-03T13:17:03.157Z,35.8
2017-09-03T13:18:03.660Z,35.9
2017-09-03T13:19:03.246Z,35.9
2017-09-03T13:20:02.836Z,35.9
2017-09-03T13:21:03.025Z,35.8
2017-09-03T13:22:03.581Z,35.5
2017-09-03T13:23:03.131Z,35.5
2017-09-03T13:24:03.313Z,35.4
2017-09-03T13:25:03.495Z,35.4
2017-09-03T13:26:02.860Z,35.4
2017-09-03T13:27:03.416Z,35.1
2017-09-03T13:28:02.987Z,35.2
2017-09-03T13:29:02.919Z,35.3
2017-09-03T13:30:02.920Z,35.3
2017-09-03T13:31:03.256Z,35.5
2017-09-03T13:32:02.818Z,35.1
2017-09-03T13:33:03.552Z,35.5
2017-09-03T13:34:03.295Z,35.5
2017-09-03T13:35:04.151Z,35.4
2017-09-03T13:36:03.696Z,35.4
2017-09-03T13:37:02.701Z,35.7
2017-09-03T13:38:03.490Z,35.8
2017-09-03T13:39:03.058Z,35.8
2017-09-03T13:40:03.680Z,35.6
2017-09-03T13:41:03.055Z,35.6
2017-09-03T13:42:03.258Z,35.6
2017-09-03T13:43:03.447Z,35.5
2017-09-03T13:44:02.666Z,35.7
2017-09-03T13:45:02.839Z,36.1
2017-09-03T13:46:03.751Z,35.9
2017-09-03T13:47:03.148Z,36
2017-09-03T13:48:03.535Z,36
2017-09-03T13:49:03.922Z,35.6
2017-09-03T13:50:03.109Z,35.9
2017-09-03T13:51:03.290Z,35.8
2017-09-03T13:52:03.341Z,35.7
2017-09-03T13:53:03.964Z,35.8
2017-09-03T13:54:03.086Z,36.1
2017-09-03T13:55:03.559Z,36
2017-09-03T13:56:02.911Z,36
2017-09-03T13:57:03.378Z,35.9
2017-09-03T13:58:02.860Z,35.9
2017-09-03T13:59:03.093Z,35.8
2017-09-03T14:00:03.150Z,35.7
2017-09-03T14:01:03.428Z,35.8
2017-09-03T14:02:03.529Z,35.7
2017-09-03T14:03:04.660Z,35.7
2017-09-03T14:04:05.173Z,35.8
2017-09-03T14:05:24.576Z,35.6
2017-09-03T14:06:08.526Z,35.7
2017-09-03T14:11:03.610Z,35.7
2017-09-03T14:12:02.937Z,35.7
2017-09-03T14:13:03.168Z,35.7
2017-09-03T14:14:02.596Z,35.8
2017-09-03T14:15:02.865Z,35.6
2017-09-03T14:16:02.875Z,35.6
2017-09-03T14:17:03.336Z,35.8
2017-09-03T14:18:02.723Z,35.9
2017-09-03T14:19:03.136Z,36
2017-09-03T14:20:03.722Z,36
2017-09-03T14:21:03.494Z,36.1
2017-09-03T14:22:02.816Z,36.1
2017-09-03T14:23:02.845Z,36
2017-09-03T14:24:03.561Z,36
2017-09-03T14:25:03.200Z,36.2